createdAt,value
2022-11-16T00:01:47.915Z,49.00
2022-11-16T00:04:16.950Z,51.80
2022-11-16T00:06:47.119Z,50.00
2022-11-16T00:09:29.958Z,49.80
2022-11-16T00:12:13.007Z,51.10
2022-11-16T00:14:42.031Z,47.40
2022-11-16T00:17:11.160Z,49.10
2022-11-16T00:19:40.052Z,55.70
2022-11-16T00:22:09.341Z,52.80
2022-11-16T00:24:38.320Z,53.30
2022-11-16T00:27:20.883Z,43.90
2022-11-16T00:29:49.879Z,44.80
2022-11-16T00:32:33.864Z,45.10
2022-11-16T00:35:02.969Z,49.40
2022-11-16T00:37:32.228Z,58.10
2022-11-16T00:40:15.167Z,46.60
2022-11-16T00:42:44.360Z,47.00
2022-11-16T00:45:13.320Z,41.40
2022-11-16T00:47:43.911Z,48.10
2022-11-16T00:50:12.793Z,43.50
2022-11-16T00:52:42.080Z,41.10
2022-11-16T00:55:24.929Z,40.50
2022-11-16T00:58:07.488Z,46.70
2022-11-16T01:00:50.021Z,50.70
2022-11-16T01:03:19.167Z,39.70
2022-11-16T01:06:03.911Z,34.80
2022-11-16T01:08:47.244Z,37.70
2022-11-16T01:11:36.457Z,39.20
2022-11-16T01:14:08.657Z,43.10
2022-11-16T01:16:38.313Z,41.90
2022-11-16T01:19:09.379Z,39.80
2022-11-16T01:21:52.567Z,44.10
2022-11-16T01:24:21.750Z,41.40
2022-11-16T01:27:04.312Z,39.70
2022-11-16T01:29:35.835Z,37.80
2022-11-16T01:32:18.559Z,38.10
2022-11-16T01:35:01.941Z,46.70
2022-11-16T01:37:34.568Z,39.50
2022-11-16T01:40:04.487Z,44.40
2022-11-16T01:42:48.594Z,42.90
2022-11-16T01:45:44.945Z,37.80
2022-11-16T01:48:30.531Z,42.10
2022-11-16T01:51:00.704Z,36.50
2022-11-16T01:53:31.956Z,46.20
2022-11-16T01:56:01.353Z,39.70
2022-11-16T01:58:54.359Z,42.00
2022-11-16T02:01:27.316Z,40.20
2022-11-16T02:04:12.626Z,41.50
2022-11-16T02:07:14.490Z,41.90
2022-11-16T02:10:02.847Z,44.60
2022-11-16T02:13:13.022Z,47.80
2022-11-16T02:15:57.197Z,45.30
2022-11-16T02:18:37.848Z,39.20
2022-11-16T02:21:39.903Z,40.80
2022-11-16T02:24:13.118Z,37.50
2022-11-16T02:27:03.423Z,39.50
2022-11-16T02:29:43.848Z,38.00
2022-11-16T02:32:20.255Z,41.40
2022-11-16T02:35:09.200Z,38.90
2022-11-16T02:37:47.846Z,36.20
2022-11-16T02:40:35.523Z,37.50
2022-11-16T02:43:17.023Z,40.80
2022-11-16T02:46:04.428Z,43.90
2022-11-16T02:48:50.858Z,38.00
2022-11-16T02:51:37.312Z,38.70
2022-11-16T02:54:19.701Z,33.50
2022-11-16T02:57:04.961Z,46.90
2022-11-16T02:59:53.740Z,48.10
2022-11-16T03:02:34.369Z,38.90
2022-11-16T03:05:15.912Z,44.30
2022-11-16T03:08:01.114Z,49.90
2022-11-16T03:10:51.481Z,44.10
2022-11-16T03:13:37.229Z,48.50
2022-11-16T03:16:19.415Z,47.70
2022-11-16T03:19:06.409Z,45.70
2022-11-16T03:21:47.454Z,41.20
2022-11-16T03:24:32.185Z,42.60
2022-11-16T03:27:08.977Z,41.20
2022-11-16T03:30:04.528Z,37.70
2022-11-16T03:33:12.086Z,44.10
2022-11-16T03:35:50.576Z,38.80
2022-11-16T03:38:22.564Z,42.00
2022-11-16T03:40:52.349Z,45.70
2022-11-16T03:43:22.641Z,51.90
2022-11-16T03:45:51.942Z,38.00
2022-11-16T03:48:21.033Z,44.00
2022-11-16T03:50:52.131Z,49.70
2022-11-16T03:53:21.817Z,43.40
2022-11-16T03:56:04.834Z,39.70
2022-11-16T03:58:47.874Z,35.30
2022-11-16T04:01:17.346Z,38.70
2022-11-16T04:03:47.103Z,43.30
2022-11-16T04:06:35.980Z,34.30
2022-11-16T04:09:30.077Z,37.80
2022-11-16T04:12:17.989Z,36.50
2022-11-16T04:15:05.925Z,34.30
2022-11-16T04:17:54.167Z,34.80
2022-11-16T04:20:42.417Z,29.40
2022-11-16T04:23:36.066Z,36.20
2022-11-16T04:26:09.238Z,37.80
2022-11-16T04:28:39.650Z,43.90
2022-11-16T04:31:27.720Z,29.10
2022-11-16T04:34:25.448Z,33.50
2022-11-16T04:37:15.082Z,21.20
2022-11-16T04:39:44.068Z,24.20
2022-11-16T04:42:20.184Z,32.30
2022-11-16T04:45:10.423Z,30.20
2022-11-16T04:47:48.295Z,27.90
2022-11-16T04:50:19.842Z,24.90
2022-11-16T04:53:04.253Z,26.10
2022-11-16T04:55:35.479Z,26.50
2022-11-16T04:58:05.712Z,22.40
2022-11-16T05:00:34.686Z,26.90
2022-11-16T05:03:05.189Z,23.10
2022-11-16T05:05:50.823Z,19.90
2022-11-16T05:08:20.244Z,16.70
2022-11-16T05:10:53.744Z,21.50
2022-11-16T05:13:23.223Z,20.30
2022-11-16T05:15:53.329Z,24.60
2022-11-16T05:18:22.059Z,15.70
2022-11-16T05:21:05.155Z,13.00
2022-11-16T05:23:58.704Z,11.40
2022-11-16T05:26:30.888Z,11.30
2022-11-16T05:28:59.755Z,8.00
2022-11-16T05:31:42.369Z,10.50
2022-11-16T05:34:11.869Z,13.80
2022-11-16T05:36:40.695Z,10.60
2022-11-16T05:39:09.656Z,8.70
2022-11-16T05:41:39.612Z,10.90
2022-11-16T05:44:08.580Z,9.00
2022-11-16T05:46:38.391Z,12.20
2022-11-16T05:49:08.166Z,8.90
2022-11-16T05:51:38.749Z,12.40
2022-11-16T05:54:08.922Z,10.00
2022-11-16T05:56:38.045Z,4.60
2022-11-16T05:59:10.055Z,6.40
2022-11-16T06:01:42.550Z,5.20
2022-11-16T06:04:26.149Z,5.10
2022-11-16T06:06:56.414Z,5.50
2022-11-16T06:09:30.101Z,2.60
2022-11-16T06:12:02.781Z,2.40
2022-11-16T06:14:45.978Z,2.40
2022-11-16T06:17:28.782Z,2.20
2022-11-16T06:19:59.028Z,3.00
2022-11-16T06:22:28.381Z,3.20
2022-11-16T06:24:58.403Z,2.20
2022-11-16T06:27:28.038Z,1.50
2022-11-16T06:29:57.799Z,4.20
2022-11-16T06:32:26.898Z,1.10
2022-11-16T06:34:55.779Z,2.60
2022-11-16T06:37:25.663Z,0.70
2022-11-16T06:39:54.948Z,1.10
2022-11-16T06:42:24.849Z,1.00
2022-11-16T06:44:55.073Z,6.90
2022-11-16T06:47:27.145Z,0.60
2022-11-16T06:49:55.821Z,1.80
2022-11-16T06:52:25.342Z,1.10
2022-11-16T06:54:54.656Z,10.00
2022-11-16T06:57:24.670Z,1.60
2022-11-16T07:00:11.032Z,1.30
2022-11-16T07:02:54.207Z,1.00
2022-11-16T07:05:41.153Z,4.00
2022-11-16T07:08:13.972Z,1.60
2022-11-16T07:10:42.657Z,1.90
2022-11-16T07:13:12.176Z,1.40
2022-11-16T07:15:54.767Z,2.00
2022-11-16T07:18:25.525Z,1.10
2022-11-16T07:20:54.844Z,0.70
2022-11-16T07:23:24.764Z,1.20
2022-11-16T07:26:08.613Z,3.10
2022-11-16T07:28:47.936Z,1.10
2022-11-16T07:31:32.432Z,2.70
2022-11-16T07:34:20.224Z,1.60
2022-11-16T07:36:54.557Z,2.60
2022-11-16T07:39:37.357Z,1.20
2022-11-16T07:42:11.876Z,1.10
2022-11-16T07:45:00.107Z,6.40
2022-11-16T07:47:29.312Z,0.80
2022-11-16T07:49:58.240Z,2.10
2022-11-16T07:52:29.885Z,1.10
2022-11-16T07:55:07.301Z,1.60
2022-11-16T07:57:36.441Z,1.70
2022-11-16T08:00:08.960Z,2.00
2022-11-16T08:02:46.841Z,2.00
2022-11-16T08:05:20.561Z,5.50
2022-11-16T08:07:51.063Z,1.70
2022-11-16T08:10:24.008Z,2.00
2022-11-16T08:12:53.918Z,1.40
2022-11-16T08:15:25.454Z,2.50
2022-11-16T08:17:55.007Z,2.60
2022-11-16T08:20:24.265Z,1.50
2022-11-16T08:22:53.866Z,2.00
2022-11-16T08:25:23.346Z,3.10
2022-11-16T08:27:52.635Z,2.90
2022-11-16T08:30:23.227Z,1.60
2022-11-16T08:33:05.951Z,5.50
2022-11-16T08:35:35.228Z,7.90
2022-11-16T08:38:18.878Z,0.80
2022-11-16T08:40:50.944Z,0.60
2022-11-16T08:43:20.613Z,1.60
2022-11-16T08:46:03.796Z,0.80
2022-11-16T08:48:46.860Z,1.30
2022-11-16T08:51:20.535Z,2.20
2022-11-16T08:54:09.866Z,1.10
2022-11-16T08:56:40.356Z,0.90
2022-11-16T08:59:09.326Z,1.50
2022-11-16T09:01:41.346Z,1.30
2022-11-16T09:04:25.454Z,1.40
2022-11-16T09:07:08.213Z,12.40
2022-11-16T09:09:36.984Z,1.20
2022-11-16T09:12:06.231Z,1.30
2022-11-16T09:17:31.065Z,1.20
2022-11-16T09:20:00.149Z,2.60
2022-11-16T09:22:28.954Z,2.40
2022-11-16T09:24:57.616Z,1.70
2022-11-16T09:27:26.330Z,4.00
2022-11-16T09:29:54.991Z,3.70
2022-11-16T09:32:23.888Z,1.70
2022-11-16T09:34:53.964Z,2.00
2022-11-16T09:37:22.687Z,1.30
2022-11-16T09:39:52.469Z,3.40
2022-11-16T09:42:42.344Z,1.10
2022-11-16T09:45:41.724Z,2.80
2022-11-16T09:48:25.558Z,1.70
2022-11-16T09:51:12.551Z,1.40
2022-11-16T09:54:04.305Z,3.70
2022-11-16T09:56:37.910Z,2.30
2022-11-16T09:59:15.048Z,0.50
2022-11-16T10:02:14.893Z,0.80
2022-11-16T10:05:08.610Z,1.10
2022-11-16T10:07:58.677Z,2.70
2022-11-16T10:10:49.469Z,1.50
2022-11-16T10:14:09.967Z,0.50
2022-11-16T10:16:57.681Z,4.20
2022-11-16T10:19:54.198Z,1.20
2022-11-16T10:22:46.613Z,1.40
2022-11-16T10:25:38.415Z,1.30
2022-11-16T10:28:26.441Z,2.90
2022-11-16T10:33:53.786Z,0.90
2022-11-16T10:36:28.153Z,1.60
2022-11-16T10:38:57.510Z,1.20
2022-11-16T10:41:50.909Z,0.80
2022-11-16T10:44:42.596Z,0.60
2022-11-16T10:47:57.326Z,0.40
2022-11-16T10:50:47.451Z,1.00
2022-11-16T10:53:32.773Z,0.90
2022-11-16T10:56:32.420Z,2.70
2022-11-16T10:59:18.963Z,1.40
2022-11-16T11:01:50.516Z,0.70
2022-11-16T11:04:23.460Z,3.30
2022-11-16T11:07:18.757Z,2.40
2022-11-16T11:09:53.555Z,2.50
2022-11-16T11:12:40.546Z,5.60
2022-11-16T11:15:12.990Z,3.20
2022-11-16T11:18:31.236Z,5.40
2022-11-16T11:21:18.276Z,3.40
2022-11-16T11:24:29.694Z,4.80
2022-11-16T11:27:00.382Z,3.20
2022-11-16T11:29:43.853Z,1.90
2022-11-16T11:32:23.834Z,9.70
2022-11-16T11:34:55.030Z,0.80
2022-11-16T11:37:32.486Z,2.70
2022-11-16T11:40:16.677Z,2.40
2022-11-16T11:43:05.466Z,3.20
2022-11-16T11:45:46.172Z,3.60
2022-11-16T11:48:30.608Z,1.70
2022-11-16T11:51:05.223Z,1.60
2022-11-16T11:53:55.120Z,0.60
2022-11-16T11:56:37.607Z,1.20
2022-11-16T11:59:24.539Z,2.40
2022-11-16T12:02:16.263Z,1.50
2022-11-16T12:05:16.124Z,1.40
2022-11-16T12:08:09.663Z,1.40
2022-11-16T12:10:52.872Z,1.00
2022-11-16T12:13:58.556Z,2.40
2022-11-16T12:16:52.016Z,3.80
2022-11-16T12:19:33.587Z,1.90
2022-11-16T12:22:39.486Z,1.30
2022-11-16T12:25:20.543Z,3.30
2022-11-16T12:28:04.275Z,5.50
2022-11-16T12:30:40.261Z,2.90
2022-11-16T12:33:47.421Z,1.30
2022-11-16T12:36:40.742Z,2.40
2022-11-16T12:39:53.570Z,5.90
2022-11-16T12:42:46.786Z,5.50
2022-11-16T12:45:44.661Z,6.40
2022-11-16T12:48:38.713Z,6.80
2022-11-16T12:51:33.348Z,4.50
2022-11-16T12:54:31.498Z,1.50
2022-11-16T12:57:25.623Z,3.30
2022-11-16T13:00:12.324Z,1.60
2022-11-16T13:02:57.179Z,1.10
2022-11-16T13:05:47.236Z,1.30
2022-11-16T13:08:29.524Z,2.00
2022-11-16T13:11:20.705Z,8.00
2022-11-16T13:13:57.030Z,8.50
2022-11-16T13:16:28.139Z,2.90
2022-11-16T13:19:14.666Z,2.80
2022-11-16T13:21:48.131Z,1.50
2022-11-16T13:24:26.237Z,2.50
